sensor_id;sensor_type;location;lat;lon;timestamp;temperature;humidity
20929;DHT22;21895;47.072;15.132;2023-07-09T00:02:23;20.40;99.90
20929;DHT22;21895;47.072;15.132;2023-07-09T00:04:51;20.40;99.90
20929;DHT22;21895;47.072;15.132;2023-07-09T00:07:32;20.40;99.90
20929;DHT22;21895;47.072;15.132;2023-07-09T00:10:02;20.40;99.90
20929;DHT22;21895;47.072;15.132;2023-07-09T00:12:29;20.30;99.90
20929;DHT22;21895;47.072;15.132;2023-07-09T00:14:55;20.30;99.90
20929;DHT22;21895;47.072;15.132;2023-07-09T00:17:28;20.30;99.90
20929;DHT22;21895;47.072;15.132;2023-07-09T00:19:57;20.20;99.90
20929;DHT22;21895;47.072;15.132;2023-07-09T00:22:24;20.10;99.90
20929;DHT22;21895;47.072;15.132;2023-07-09T00:24:53;20.00;99.90
20929;DHT22;21895;47.072;15.132;2023-07-09T00:27:27;19.90;99.90
20929;DHT22;21895;47.072;15.132;2023-07-09T00:30:00;19.80;99.90
20929;DHT22;21895;47.072;15.132;2023-07-09T00:32:28;19.80;99.90
20929;DHT22;21895;47.072;15.132;2023-07-09T00:34:55;19.70;99.90
20929;DHT22;21895;47.072;15.132;2023-07-09T00:37:24;19.80;99.90
20929;DHT22;21895;47.072;15.132;2023-07-09T00:39:51;20.00;99.90
20929;DHT22;21895;47.072;15.132;2023-07-09T00:42:21;20.00;99.90
20929;DHT22;21895;47.072;15.132;2023-07-09T00:44:54;20.00;99.90
20929;DHT22;21895;47.072;15.132;2023-07-09T00:47:29;20.00;99.90
20929;DHT22;21895;47.072;15.132;2023-07-09T00:50:55;20.00;99.90
20929;DHT22;21895;47.072;15.132;2023-07-09T00:53:29;19.90;99.90
20929;DHT22;21895;47.072;15.132;2023-07-09T00:56:06;19.80;99.90
20929;DHT22;21895;47.072;15.132;2023-07-09T00:58:38;19.70;99.90
20929;DHT22;21895;47.072;15.132;2023-07-09T01:01:09;19.60;99.90
20929;DHT22;21895;47.072;15.132;2023-07-09T01:03:51;19.50;99.90
20929;DHT22;21895;47.072;15.132;2023-07-09T01:06:33;19.40;99.90
20929;DHT22;21895;47.072;15.132;2023-07-09T01:09:05;19.40;99.90
20929;DHT22;21895;47.072;15.132;2023-07-09T01:11:34;19.30;99.90
20929;DHT22;21895;47.072;15.132;2023-07-09T01:14:05;19.30;99.90
20929;DHT22;21895;47.072;15.132;2023-07-09T01:16:36;19.40;99.90
20929;DHT22;21895;47.072;15.132;2023-07-09T01:19:09;19.50;99.90
20929;DHT22;21895;47.072;15.132;2023-07-09T01:21:35;19.50;99.90
20929;DHT22;21895;47.072;15.132;2023-07-09T01:24:45;19.50;99.90
20929;DHT22;21895;47.072;15.132;2023-07-09T01:27:23;19.50;99.90
20929;DHT22;21895;47.072;15.132;2023-07-09T01:29:56;19.30;99.90
20929;DHT22;21895;47.072;15.132;2023-07-09T01:32:23;19.30;99.90
20929;DHT22;21895;47.072;15.132;2023-07-09T01:34:59;19.20;99.90
20929;DHT22;21895;47.072;15.132;2023-07-09T01:37:31;19.30;99.90
20929;DHT22;21895;47.072;15.132;2023-07-09T01:40:04;19.40;99.90
20929;DHT22;21895;47.072;15.132;2023-07-09T01:42:54;19.40;99.90
20929;DHT22;21895;47.072;15.132;2023-07-09T01:45:24;19.40;99.90
20929;DHT22;21895;47.072;15.132;2023-07-09T01:47:51;19.30;99.90
20929;DHT22;21895;47.072;15.132;2023-07-09T01:50:19;19.30;99.90
20929;DHT22;21895;47.072;15.132;2023-07-09T01:52:46;19.40;99.90
20929;DHT22;21895;47.072;15.132;2023-07-09T01:55:15;19.30;99.90
20929;DHT22;21895;47.072;15.132;2023-07-09T01:57:43;19.10;99.90
20929;DHT22;21895;47.072;15.132;2023-07-09T02:00:13;19.00;99.90
20929;DHT22;21895;47.072;15.132;2023-07-09T02:02:42;19.00;99.90
20929;DHT22;21895;47.072;15.132;2023-07-09T02:05:14;19.00;99.90
20929;DHT22;21895;47.072;15.132;2023-07-09T02:07:42;19.00;99.90
20929;DHT22;21895;47.072;15.132;2023-07-09T02:10:10;19.00;99.90
20929;DHT22;21895;47.072;15.132;2023-07-09T02:12:37;19.00;99.90
20929;DHT22;21895;47.072;15.132;2023-07-09T02:15:04;18.90;99.90
20929;DHT22;21895;47.072;15.132;2023-07-09T02:17:32;19.00;99.90
20929;DHT22;21895;47.072;15.132;2023-07-09T02:19:58;18.90;99.90
20929;DHT22;21895;47.072;15.132;2023-07-09T02:22:25;18.80;99.90
20929;DHT22;21895;47.072;15.132;2023-07-09T02:24:51;18.70;99.90
20929;DHT22;21895;47.072;15.132;2023-07-09T02:27:21;18.80;99.90
20929;DHT22;21895;47.072;15.132;2023-07-09T02:29:48;18.70;99.90
20929;DHT22;21895;47.072;15.132;2023-07-09T02:32:18;18.60;99.90
20929;DHT22;21895;47.072;15.132;2023-07-09T02:34:47;18.60;99.90
20929;DHT22;21895;47.072;15.132;2023-07-09T02:37:16;18.60;99.90
20929;DHT22;21895;47.072;15.132;2023-07-09T02:39:44;18.50;99.90
20929;DHT22;21895;47.072;15.132;2023-07-09T02:42:12;18.50;99.90
20929;DHT22;21895;47.072;15.132;2023-07-09T02:44:41;18.40;99.90
20929;DHT22;21895;47.072;15.132;2023-07-09T02:47:08;18.40;99.90
20929;DHT22;21895;47.072;15.132;2023-07-09T02:49:35;18.40;99.90
20929;DHT22;21895;47.072;15.132;2023-07-09T02:52:04;18.40;99.90
20929;DHT22;21895;47.072;15.132;2023-07-09T02:54:31;18.30;99.90
20929;DHT22;21895;47.072;15.132;2023-07-09T02:56:58;18.40;99.90
20929;DHT22;21895;47.072;15.132;2023-07-09T02:59:25;18.40;99.90
20929;DHT22;21895;47.072;15.132;2023-07-09T03:01:52;18.30;99.90
20929;DHT22;21895;47.072;15.132;2023-07-09T03:04:19;18.20;99.90
20929;DHT22;21895;47.072;15.132;2023-07-09T03:06:48;18.00;99.90
20929;DHT22;21895;47.072;15.132;2023-07-09T03:09:15;17.90;99.90
20929;DHT22;21895;47.072;15.132;2023-07-09T03:11:42;17.90;99.90
20929;DHT22;21895;47.072;15.132;2023-07-09T03:14:08;17.90;99.90
20929;DHT22;21895;47.072;15.132;2023-07-09T03:16:35;17.90;99.90
20929;DHT22;21895;47.072;15.132;2023-07-09T03:19:03;17.90;99.90
20929;DHT22;21895;47.072;15.132;2023-07-09T03:21:31;17.90;99.90
20929;DHT22;21895;47.072;15.132;2023-07-09T03:23:58;17.70;99.90
20929;DHT22;21895;47.072;15.132;2023-07-09T03:26:25;17.90;99.90
20929;DHT22;21895;47.072;15.132;2023-07-09T03:28:53;18.10;99.90
20929;DHT22;21895;47.072;15.132;2023-07-09T03:31:20;18.20;99.90
20929;DHT22;21895;47.072;15.132;2023-07-09T03:33:48;18.40;99.90
20929;DHT22;21895;47.072;15.132;2023-07-09T03:36:16;18.40;99.90
20929;DHT22;21895;47.072;15.132;2023-07-09T03:38:45;18.30;99.90
20929;DHT22;21895;47.072;15.132;2023-07-09T03:41:12;18.40;99.90
20929;DHT22;21895;47.072;15.132;2023-07-09T03:43:39;18.40;99.90
20929;DHT22;21895;47.072;15.132;2023-07-09T03:46:05;18.50;99.90
20929;DHT22;21895;47.072;15.132;2023-07-09T03:48:32;18.50;99.90
20929;DHT22;21895;47.072;15.132;2023-07-09T03:50:59;18.50;99.90
20929;DHT22;21895;47.072;15.132;2023-07-09T03:53:25;18.50;99.90
20929;DHT22;21895;47.072;15.132;2023-07-09T03:55:54;18.60;99.90
20929;DHT22;21895;47.072;15.132;2023-07-09T03:58:24;18.70;99.90
20929;DHT22;21895;47.072;15.132;2023-07-09T04:00:52;18.80;99.90
20929;DHT22;21895;47.072;15.132;2023-07-09T04:03:20;18.90;99.90
20929;DHT22;21895;47.072;15.132;2023-07-09T04:05:48;18.80;99.90
20929;DHT22;21895;47.072;15.132;2023-07-09T04:08:17;18.80;99.90
20929;DHT22;21895;47.072;15.132;2023-07-09T04:10:44;18.90;99.90
20929;DHT22;21895;47.072;15.132;2023-07-09T04:13:11;18.90;99.90
20929;DHT22;21895;47.072;15.132;2023-07-09T04:15:37;19.00;99.90
20929;DHT22;21895;47.072;15.132;2023-07-09T04:18:04;19.20;99.90
20929;DHT22;21895;47.072;15.132;2023-07-09T04:20:31;19.20;99.90
20929;DHT22;21895;47.072;15.132;2023-07-09T04:22:57;19.30;99.90
20929;DHT22;21895;47.072;15.132;2023-07-09T04:25:24;19.40;99.90
20929;DHT22;21895;47.072;15.132;2023-07-09T04:27:50;19.50;99.90
20929;DHT22;21895;47.072;15.132;2023-07-09T04:30:17;19.70;99.90
20929;DHT22;21895;47.072;15.132;2023-07-09T04:32:45;19.80;99.90
20929;DHT22;21895;47.072;15.132;2023-07-09T04:35:13;19.90;99.90
20929;DHT22;21895;47.072;15.132;2023-07-09T04:37:41;19.90;99.90
20929;DHT22;21895;47.072;15.132;2023-07-09T04:40:09;19.90;99.90
20929;DHT22;21895;47.072;15.132;2023-07-09T04:42:38;20.20;99.90
20929;DHT22;21895;47.072;15.132;2023-07-09T04:45:06;20.30;99.90
20929;DHT22;21895;47.072;15.132;2023-07-09T04:47:35;20.40;99.90
20929;DHT22;21895;47.072;15.132;2023-07-09T04:50:06;20.40;99.90
20929;DHT22;21895;47.072;15.132;2023-07-09T04:52:34;20.50;99.90
20929;DHT22;21895;47.072;15.132;2023-07-09T04:55:01;20.70;99.90
20929;DHT22;21895;47.072;15.132;2023-07-09T04:57:27;20.80;99.90
20929;DHT22;21895;47.072;15.132;2023-07-09T04:59:54;21.10;99.90
20929;DHT22;21895;47.072;15.132;2023-07-09T05:02:21;21.40;99.90
20929;DHT22;21895;47.072;15.132;2023-07-09T05:04:48;21.40;99.90
20929;DHT22;21895;47.072;15.132;2023-07-09T05:07:15;21.40;99.90
20929;DHT22;21895;47.072;15.132;2023-07-09T05:09:41;21.40;99.90
20929;DHT22;21895;47.072;15.132;2023-07-09T05:12:08;21.30;99.90
20929;DHT22;21895;47.072;15.132;2023-07-09T05:14:35;21.20;99.90
20929;DHT22;21895;47.072;15.132;2023-07-09T05:17:02;21.30;99.90
20929;DHT22;21895;47.072;15.132;2023-07-09T05:19:30;21.40;99.90
20929;DHT22;21895;47.072;15.132;2023-07-09T05:21:56;21.60;99.90
20929;DHT22;21895;47.072;15.132;2023-07-09T05:24:23;21.90;99.90
20929;DHT22;21895;47.072;15.132;2023-07-09T05:26:54;22.10;99.90
20929;DHT22;21895;47.072;15.132;2023-07-09T05:29:22;22.40;99.90
20929;DHT22;21895;47.072;15.132;2023-07-09T05:31:49;22.60;99.90
20929;DHT22;21895;47.072;15.132;2023-07-09T05:34:15;22.70;99.90
20929;DHT22;21895;47.072;15.132;2023-07-09T05:36:42;22.60;99.90
20929;DHT22;21895;47.072;15.132;2023-07-09T05:39:08;22.80;99.90
20929;DHT22;21895;47.072;15.132;2023-07-09T05:41:35;22.80;99.90
20929;DHT22;21895;47.072;15.132;2023-07-09T05:44:02;23.10;99.90
20929;DHT22;21895;47.072;15.132;2023-07-09T05:46:28;23.60;99.90
20929;DHT22;21895;47.072;15.132;2023-07-09T05:49:05;23.90;99.90
20929;DHT22;21895;47.072;15.132;2023-07-09T05:51:32;23.90;99.90
20929;DHT22;21895;47.072;15.132;2023-07-09T05:53:59;23.70;99.90
20929;DHT22;21895;47.072;15.132;2023-07-09T05:56:26;23.80;99.90
20929;DHT22;21895;47.072;15.132;2023-07-09T05:58:52;24.30;99.90
20929;DHT22;21895;47.072;15.132;2023-07-09T06:01:19;24.80;99.90
20929;DHT22;21895;47.072;15.132;2023-07-09T06:03:46;25.20;99.90
20929;DHT22;21895;47.072;15.132;2023-07-09T06:06:13;25.70;99.70
20929;DHT22;21895;47.072;15.132;2023-07-09T06:08:39;25.70;99.20
20929;DHT22;21895;47.072;15.132;2023-07-09T06:11:06;25.70;98.70
20929;DHT22;21895;47.072;15.132;2023-07-09T06:13:33;25.60;98.90
20929;DHT22;21895;47.072;15.132;2023-07-09T06:16:00;25.50;98.80
20929;DHT22;21895;47.072;15.132;2023-07-09T06:18:28;25.70;98.60
20929;DHT22;21895;47.072;15.132;2023-07-09T06:21:00;25.50;99.10
20929;DHT22;21895;47.072;15.132;2023-07-09T06:23:28;25.50;98.50
20929;DHT22;21895;47.072;15.132;2023-07-09T06:25:56;25.50;99.10
20929;DHT22;21895;47.072;15.132;2023-07-09T06:28:24;25.40;99.30
20929;DHT22;21895;47.072;15.132;2023-07-09T06:30:54;25.40;99.40
20929;DHT22;21895;47.072;15.132;2023-07-09T06:33:22;25.40;99.40
20929;DHT22;21895;47.072;15.132;2023-07-09T06:35:51;25.20;99.80
20929;DHT22;21895;47.072;15.132;2023-07-09T06:38:22;25.00;99.90
20929;DHT22;21895;47.072;15.132;2023-07-09T06:40:49;24.80;99.90
20929;DHT22;21895;47.072;15.132;2023-07-09T06:43:16;24.80;99.90
20929;DHT22;21895;47.072;15.132;2023-07-09T06:45:57;25.00;99.90
20929;DHT22;21895;47.072;15.132;2023-07-09T06:48:27;25.00;99.90
20929;DHT22;21895;47.072;15.132;2023-07-09T06:50:56;25.30;99.90
20929;DHT22;21895;47.072;15.132;2023-07-09T06:53:25;25.60;99.90
20929;DHT22;21895;47.072;15.132;2023-07-09T06:55:52;26.10;99.70
20929;DHT22;21895;47.072;15.132;2023-07-09T06:58:22;26.40;99.60
20929;DHT22;21895;47.072;15.132;2023-07-09T07:00:51;26.20;99.40
20929;DHT22;21895;47.072;15.132;2023-07-09T07:03:18;26.20;99.50
20929;DHT22;21895;47.072;15.132;2023-07-09T07:05:46;26.30;98.80
20929;DHT22;21895;47.072;15.132;2023-07-09T07:08:17;26.60;98.70
20929;DHT22;21895;47.072;15.132;2023-07-09T07:10:45;26.90;98.30
20929;DHT22;21895;47.072;15.132;2023-07-09T07:13:14;27.40;97.00
20929;DHT22;21895;47.072;15.132;2023-07-09T07:15:41;27.60;97.40
20929;DHT22;21895;47.072;15.132;2023-07-09T07:18:08;27.80;96.60
20929;DHT22;21895;47.072;15.132;2023-07-09T07:20:34;27.90;96.50
20929;DHT22;21895;47.072;15.132;2023-07-09T07:23:01;27.90;96.50
20929;DHT22;21895;47.072;15.132;2023-07-09T07:25:27;28.00;95.40
20929;DHT22;21895;47.072;15.132;2023-07-09T07:27:54;28.00;94.60
20929;DHT22;21895;47.072;15.132;2023-07-09T07:30:20;28.20;93.60
20929;DHT22;21895;47.072;15.132;2023-07-09T07:32:51;28.40;95.20
20929;DHT22;21895;47.072;15.132;2023-07-09T07:35:18;28.60;95.50
20929;DHT22;21895;47.072;15.132;2023-07-09T07:37:45;28.70;93.70
20929;DHT22;21895;47.072;15.132;2023-07-09T07:40:11;28.90;94.00
20929;DHT22;21895;47.072;15.132;2023-07-09T07:42:38;29.10;93.50
20929;DHT22;21895;47.072;15.132;2023-07-09T07:45:05;29.10;93.00
20929;DHT22;21895;47.072;15.132;2023-07-09T07:47:33;29.20;93.30
20929;DHT22;21895;47.072;15.132;2023-07-09T07:50:04;29.40;92.00
20929;DHT22;21895;47.072;15.132;2023-07-09T07:52:31;29.30;91.90
20929;DHT22;21895;47.072;15.132;2023-07-09T07:54:58;29.50;92.30
20929;DHT22;21895;47.072;15.132;2023-07-09T07:57:25;29.60;91.40
20929;DHT22;21895;47.072;15.132;2023-07-09T07:59:52;29.60;91.50
20929;DHT22;21895;47.072;15.132;2023-07-09T08:02:19;29.80;92.60
20929;DHT22;21895;47.072;15.132;2023-07-09T08:04:46;29.90;92.60
20929;DHT22;21895;47.072;15.132;2023-07-09T08:07:12;29.90;93.30
20929;DHT22;21895;47.072;15.132;2023-07-09T08:09:39;30.00;91.80
20929;DHT22;21895;47.072;15.132;2023-07-09T08:12:06;30.30;91.00
20929;DHT22;21895;47.072;15.132;2023-07-09T08:14:42;30.40;90.80
20929;DHT22;21895;47.072;15.132;2023-07-09T08:17:12;30.30;91.20
20929;DHT22;21895;47.072;15.132;2023-07-09T08:19:50;30.40;91.50
20929;DHT22;21895;47.072;15.132;2023-07-09T08:22:19;30.70;91.00
20929;DHT22;21895;47.072;15.132;2023-07-09T08:24:51;30.80;90.20
20929;DHT22;21895;47.072;15.132;2023-07-09T08:27:18;30.90;88.30
20929;DHT22;21895;47.072;15.132;2023-07-09T08:29:45;31.00;89.40
20929;DHT22;21895;47.072;15.132;2023-07-09T08:32:13;31.00;86.40
20929;DHT22;21895;47.072;15.132;2023-07-09T08:34:41;31.00;87.70
20929;DHT22;21895;47.072;15.132;2023-07-09T08:37:31;31.10;85.60
20929;DHT22;21895;47.072;15.132;2023-07-09T08:39:57;31.20;90.30
20929;DHT22;21895;47.072;15.132;2023-07-09T08:42:35;31.30;88.90
20929;DHT22;21895;47.072;15.132;2023-07-09T08:45:47;31.60;85.70
20929;DHT22;21895;47.072;15.132;2023-07-09T08:48:31;31.60;84.00
20929;DHT22;21895;47.072;15.132;2023-07-09T08:51:48;31.70;85.50
20929;DHT22;21895;47.072;15.132;2023-07-09T08:54:25;31.70;83.20
20929;DHT22;21895;47.072;15.132;2023-07-09T08:57:03;32.10;84.30
20929;DHT22;21895;47.072;15.132;2023-07-09T08:59:42;32.20;77.90
20929;DHT22;21895;47.072;15.132;2023-07-09T09:02:24;32.30;76.80
20929;DHT22;21895;47.072;15.132;2023-07-09T09:04:56;32.30;81.00
20929;DHT22;21895;47.072;15.132;2023-07-09T09:07:43;32.40;78.10
20929;DHT22;21895;47.072;15.132;2023-07-09T09:10:14;32.50;75.30
20929;DHT22;21895;47.072;15.132;2023-07-09T09:13:09;32.50;72.40
20929;DHT22;21895;47.072;15.132;2023-07-09T09:15:44;32.70;75.30
20929;DHT22;21895;47.072;15.132;2023-07-09T09:18:22;32.60;78.60
20929;DHT22;21895;47.072;15.132;2023-07-09T09:21:04;32.60;79.30
20929;DHT22;21895;47.072;15.132;2023-07-09T09:24:21;32.70;78.40
20929;DHT22;21895;47.072;15.132;2023-07-09T09:26:58;32.60;78.70
20929;DHT22;21895;47.072;15.132;2023-07-09T09:29:26;32.50;75.70
20929;DHT22;21895;47.072;15.132;2023-07-09T09:31:55;32.40;75.20
20929;DHT22;21895;47.072;15.132;2023-07-09T09:34:26;32.40;73.00
20929;DHT22;21895;47.072;15.132;2023-07-09T09:36:58;32.50;74.20
20929;DHT22;21895;47.072;15.132;2023-07-09T09:39:26;32.50;73.20
20929;DHT22;21895;47.072;15.132;2023-07-09T09:41:57;32.40;73.20
20929;DHT22;21895;47.072;15.132;2023-07-09T09:44:26;32.20;73.10
20929;DHT22;21895;47.072;15.132;2023-07-09T09:46:56;32.20;76.00
20929;DHT22;21895;47.072;15.132;2023-07-09T09:49:26;32.30;74.00
20929;DHT22;21895;47.072;15.132;2023-07-09T09:51:53;32.10;73.20
20929;DHT22;21895;47.072;15.132;2023-07-09T09:54:27;32.00;72.50
20929;DHT22;21895;47.072;15.132;2023-07-09T09:56:56;32.10;72.80
20929;DHT22;21895;47.072;15.132;2023-07-09T09:59:33;32.20;76.20
20929;DHT22;21895;47.072;15.132;2023-07-09T10:02:16;32.10;72.40
20929;DHT22;21895;47.072;15.132;2023-07-09T10:04:44;31.90;75.30
20929;DHT22;21895;47.072;15.132;2023-07-09T10:07:27;32.00;74.50
20929;DHT22;21895;47.072;15.132;2023-07-09T10:10:03;32.20;75.10
20929;DHT22;21895;47.072;15.132;2023-07-09T10:12:58;32.30;73.40
20929;DHT22;21895;47.072;15.132;2023-07-09T10:18:57;32.60;74.00
20929;DHT22;21895;47.072;15.132;2023-07-09T10:21:47;32.60;69.60
20929;DHT22;21895;47.072;15.132;2023-07-09T10:26:29;32.50;73.40
20929;DHT22;21895;47.072;15.132;2023-07-09T10:39:52;32.80;68.90
20929;DHT22;21895;47.072;15.132;2023-07-09T10:42:57;32.70;66.50
20929;DHT22;21895;47.072;15.132;2023-07-09T10:45:38;32.70;65.30
20929;DHT22;21895;47.072;15.132;2023-07-09T10:48:17;32.60;69.30
20929;DHT22;21895;47.072;15.132;2023-07-09T10:50:53;32.60;69.70
20929;DHT22;21895;47.072;15.132;2023-07-09T10:53:38;32.70;67.10
20929;DHT22;21895;47.072;15.132;2023-07-09T10:56:21;32.70;65.80
20929;DHT22;21895;47.072;15.132;2023-07-09T11:01:12;32.60;66.30
20929;DHT22;21895;47.072;15.132;2023-07-09T11:05:12;32.80;65.90
20929;DHT22;21895;47.072;15.132;2023-07-09T11:07:45;32.80;69.80
20929;DHT22;21895;47.072;15.132;2023-07-09T11:13:47;32.70;66.40
20929;DHT22;21895;47.072;15.132;2023-07-09T11:16:44;32.90;65.60
20929;DHT22;21895;47.072;15.132;2023-07-09T11:19:17;32.90;64.40
20929;DHT22;21895;47.072;15.132;2023-07-09T11:24:24;32.90;61.80
20929;DHT22;21895;47.072;15.132;2023-07-09T11:26:56;33.00;61.60
20929;DHT22;21895;47.072;15.132;2023-07-09T11:29:26;33.10;64.00
20929;DHT22;21895;47.072;15.132;2023-07-09T11:31:54;33.10;63.50
20929;DHT22;21895;47.072;15.132;2023-07-09T11:34:27;33.20;63.70
20929;DHT22;21895;47.072;15.132;2023-07-09T11:37:00;33.20;64.20
20929;DHT22;21895;47.072;15.132;2023-07-09T11:39:42;33.20;62.30
20929;DHT22;21895;47.072;15.132;2023-07-09T11:42:28;33.10;65.60
20929;DHT22;21895;47.072;15.132;2023-07-09T11:45:33;33.20;63.40
20929;DHT22;21895;47.072;15.132;2023-07-09T11:48:29;33.20;64.40
20929;DHT22;21895;47.072;15.132;2023-07-09T11:51:08;33.00;63.50
20929;DHT22;21895;47.072;15.132;2023-07-09T11:53:48;33.00;66.50
20929;DHT22;21895;47.072;15.132;2023-07-09T11:56:22;33.10;62.70
20929;DHT22;21895;47.072;15.132;2023-07-09T11:58:54;33.00;64.90
20929;DHT22;21895;47.072;15.132;2023-07-09T12:01:29;32.90;61.80
20929;DHT22;21895;47.072;15.132;2023-07-09T12:04:15;32.80;63.80
20929;DHT22;21895;47.072;15.132;2023-07-09T12:06:45;32.80;64.10
20929;DHT22;21895;47.072;15.132;2023-07-09T12:09:17;32.90;66.20
20929;DHT22;21895;47.072;15.132;2023-07-09T12:11:48;33.00;64.90
20929;DHT22;21895;47.072;15.132;2023-07-09T12:14:20;33.10;64.50
20929;DHT22;21895;47.072;15.132;2023-07-09T12:16:50;33.10;62.70
20929;DHT22;21895;47.072;15.132;2023-07-09T12:19:22;33.00;66.10
20929;DHT22;21895;47.072;15.132;2023-07-09T12:21:53;33.10;62.80
20929;DHT22;21895;47.072;15.132;2023-07-09T12:24:25;33.20;65.10
20929;DHT22;21895;47.072;15.132;2023-07-09T12:26:58;33.10;63.40
20929;DHT22;21895;47.072;15.132;2023-07-09T12:29:28;33.20;63.40
20929;DHT22;21895;47.072;15.132;2023-07-09T12:31:56;32.90;61.00
20929;DHT22;21895;47.072;15.132;2023-07-09T12:34:24;32.90;65.20
20929;DHT22;21895;47.072;15.132;2023-07-09T12:36:53;32.90;63.20
20929;DHT22;21895;47.072;15.132;2023-07-09T12:39:25;32.80;65.40
20929;DHT22;21895;47.072;15.132;2023-07-09T12:41:59;32.90;63.20
20929;DHT22;21895;47.072;15.132;2023-07-09T12:44:34;33.00;66.70
20929;DHT22;21895;47.072;15.132;2023-07-09T12:47:03;33.00;69.40
20929;DHT22;21895;47.072;15.132;2023-07-09T12:49:38;33.10;66.70
20929;DHT22;21895;47.072;15.132;2023-07-09T12:52:14;33.10;68.20
20929;DHT22;21895;47.072;15.132;2023-07-09T12:54:58;33.00;67.10
20929;DHT22;21895;47.072;15.132;2023-07-09T12:57:26;33.10;69.60
20929;DHT22;21895;47.072;15.132;2023-07-09T12:59:55;32.90;67.60
20929;DHT22;21895;47.072;15.132;2023-07-09T13:02:25;32.70;68.90
20929;DHT22;21895;47.072;15.132;2023-07-09T13:05:17;32.70;70.80
20929;DHT22;21895;47.072;15.132;2023-07-09T13:07:51;32.90;70.00
20929;DHT22;21895;47.072;15.132;2023-07-09T13:10:24;32.90;70.80
20929;DHT22;21895;47.072;15.132;2023-07-09T13:12:55;33.00;69.60
20929;DHT22;21895;47.072;15.132;2023-07-09T13:15:31;33.20;71.60
20929;DHT22;21895;47.072;15.132;2023-07-09T13:18:40;33.30;72.00
20929;DHT22;21895;47.072;15.132;2023-07-09T13:21:15;33.10;70.60
20929;DHT22;21895;47.072;15.132;2023-07-09T13:23:43;32.80;72.30
20929;DHT22;21895;47.072;15.132;2023-07-09T13:26:10;32.80;73.50
20929;DHT22;21895;47.072;15.132;2023-07-09T13:28:37;32.80;72.90
20929;DHT22;21895;47.072;15.132;2023-07-09T13:31:16;32.80;73.40
20929;DHT22;21895;47.072;15.132;2023-07-09T13:33:52;32.70;73.10
20929;DHT22;21895;47.072;15.132;2023-07-09T13:36:21;32.60;72.40
20929;DHT22;21895;47.072;15.132;2023-07-09T13:38:47;32.60;75.50
20929;DHT22;21895;47.072;15.132;2023-07-09T13:41:17;32.60;73.40
20929;DHT22;21895;47.072;15.132;2023-07-09T13:43:48;32.60;75.20
20929;DHT22;21895;47.072;15.132;2023-07-09T13:46:15;32.40;74.90
20929;DHT22;21895;47.072;15.132;2023-07-09T13:48:43;32.50;75.30
20929;DHT22;21895;47.072;15.132;2023-07-09T13:51:18;32.60;75.70
20929;DHT22;21895;47.072;15.132;2023-07-09T13:53:50;32.40;74.20
20929;DHT22;21895;47.072;15.132;2023-07-09T13:56:19;32.30;75.00
20929;DHT22;21895;47.072;15.132;2023-07-09T13:58:46;32.00;75.60
20929;DHT22;21895;47.072;15.132;2023-07-09T14:01:15;32.10;77.30
20929;DHT22;21895;47.072;15.132;2023-07-09T14:03:46;32.10;75.60
20929;DHT22;21895;47.072;15.132;2023-07-09T14:06:15;32.00;75.60
20929;DHT22;21895;47.072;15.132;2023-07-09T14:08:43;31.90;75.70
20929;DHT22;21895;47.072;15.132;2023-07-09T14:11:14;31.80;77.10
20929;DHT22;21895;47.072;15.132;2023-07-09T14:13:43;31.90;78.40
20929;DHT22;21895;47.072;15.132;2023-07-09T14:16:11;31.90;76.80
20929;DHT22;21895;47.072;15.132;2023-07-09T14:18:39;31.90;77.00
20929;DHT22;21895;47.072;15.132;2023-07-09T14:21:20;31.80;75.20
20929;DHT22;21895;47.072;15.132;2023-07-09T14:23:51;31.70;76.70
20929;DHT22;21895;47.072;15.132;2023-07-09T14:26:18;31.70;77.10
20929;DHT22;21895;47.072;15.132;2023-07-09T14:28:45;31.70;78.20
20929;DHT22;21895;47.072;15.132;2023-07-09T14:31:27;31.80;76.90
20929;DHT22;21895;47.072;15.132;2023-07-09T14:34:16;31.80;77.20
20929;DHT22;21895;47.072;15.132;2023-07-09T14:37:07;31.90;77.40
20929;DHT22;21895;47.072;15.132;2023-07-09T14:39:35;31.90;77.30
20929;DHT22;21895;47.072;15.132;2023-07-09T14:42:01;31.90;75.80
20929;DHT22;21895;47.072;15.132;2023-07-09T14:44:30;32.10;78.50
20929;DHT22;21895;47.072;15.132;2023-07-09T14:46:59;32.10;76.20
20929;DHT22;21895;47.072;15.132;2023-07-09T14:49:27;32.10;76.40
20929;DHT22;21895;47.072;15.132;2023-07-09T14:51:55;32.10;77.20
20929;DHT22;21895;47.072;15.132;2023-07-09T14:54:27;32.20;77.30
20929;DHT22;21895;47.072;15.132;2023-07-09T14:56:56;32.30;76.10
20929;DHT22;21895;47.072;15.132;2023-07-09T14:59:24;32.10;75.10
20929;DHT22;21895;47.072;15.132;2023-07-09T15:01:52;32.00;75.90
20929;DHT22;21895;47.072;15.132;2023-07-09T15:04:31;32.00;76.50
20929;DHT22;21895;47.072;15.132;2023-07-09T15:06:59;32.00;77.80
20929;DHT22;21895;47.072;15.132;2023-07-09T15:09:27;31.80;78.10
20929;DHT22;21895;47.072;15.132;2023-07-09T15:11:56;31.70;77.90
20929;DHT22;21895;47.072;15.132;2023-07-09T15:14:26;31.30;77.50
20929;DHT22;21895;47.072;15.132;2023-07-09T15:16:53;31.20;78.10
20929;DHT22;21895;47.072;15.132;2023-07-09T15:19:23;31.00;80.10
20929;DHT22;21895;47.072;15.132;2023-07-09T15:21:50;30.90;79.20
20929;DHT22;21895;47.072;15.132;2023-07-09T15:24:32;30.80;80.30
20929;DHT22;21895;47.072;15.132;2023-07-09T15:27:01;30.90;81.10
20929;DHT22;21895;47.072;15.132;2023-07-09T15:29:30;30.80;79.20
20929;DHT22;21895;47.072;15.132;2023-07-09T15:31:58;30.90;80.20
20929;DHT22;21895;47.072;15.132;2023-07-09T15:34:25;30.80;80.70
20929;DHT22;21895;47.072;15.132;2023-07-09T15:36:52;30.90;80.70
20929;DHT22;21895;47.072;15.132;2023-07-09T15:39:20;30.80;80.70
20929;DHT22;21895;47.072;15.132;2023-07-09T15:41:47;30.90;80.50
20929;DHT22;21895;47.072;15.132;2023-07-09T15:44:15;30.90;81.30
20929;DHT22;21895;47.072;15.132;2023-07-09T15:46:51;30.80;81.20
20929;DHT22;21895;47.072;15.132;2023-07-09T15:49:20;30.70;80.60
20929;DHT22;21895;47.072;15.132;2023-07-09T15:51:46;30.60;81.80
20929;DHT22;21895;47.072;15.132;2023-07-09T15:54:19;30.70;82.30
20929;DHT22;21895;47.072;15.132;2023-07-09T15:56:48;30.50;82.10
20929;DHT22;21895;47.072;15.132;2023-07-09T15:59:32;30.50;83.40
20929;DHT22;21895;47.072;15.132;2023-07-09T16:02:01;30.50;83.10
20929;DHT22;21895;47.072;15.132;2023-07-09T16:04:35;30.40;82.50
20929;DHT22;21895;47.072;15.132;2023-07-09T16:07:02;30.20;83.20
20929;DHT22;21895;47.072;15.132;2023-07-09T16:09:28;30.30;83.70